sensor_id;sensor_type;location;lat;lon;timestamp;P1;durP1;ratioP1;P2;durP2;ratioP2
39018;SDS011;24786;51.984;5.872;2022-11-10T00:00:27;10.63;;;3.60;;
39018;SDS011;24786;51.984;5.872;2022-11-10T00:02:53;10.45;;;3.25;;
39018;SDS011;24786;51.984;5.872;2022-11-10T00:05:19;10.00;;;3.40;;
39018;SDS011;24786;51.984;5.872;2022-11-10T00:07:44;14.73;;;3.35;;
39018;SDS011;24786;51.984;5.872;2022-11-10T00:10:10;11.32;;;3.47;;
39018;SDS011;24786;51.984;5.872;2022-11-10T00:12:36;10.75;;;3.90;;
39018;SDS011;24786;51.984;5.872;2022-11-10T00:15:02;9.18;;;3.45;;
39018;SDS011;24786;51.984;5.872;2022-11-10T00:17:46;7.15;;;3.53;;
39018;SDS011;24786;51.984;5.872;2022-11-10T00:20:12;9.95;;;3.30;;
39018;SDS011;24786;51.984;5.872;2022-11-10T00:22:38;11.30;;;3.97;;
39018;SDS011;24786;51.984;5.872;2022-11-10T00:25:05;11.55;;;3.35;;
39018;SDS011;24786;51.984;5.872;2022-11-10T00:27:32;7.88;;;3.30;;
39018;SDS011;24786;51.984;5.872;2022-11-10T00:29:58;6.28;;;3.40;;
39018;SDS011;24786;51.984;5.872;2022-11-10T00:32:24;10.15;;;3.70;;
39018;SDS011;24786;51.984;5.872;2022-11-10T00:34:50;9.18;;;3.60;;
39018;SDS011;24786;51.984;5.872;2022-11-10T00:37:16;13.70;;;3.50;;
39018;SDS011;24786;51.984;5.872;2022-11-10T00:39:41;10.20;;;4.00;;
39018;SDS011;24786;51.984;5.872;2022-11-10T00:42:07;9.30;;;3.60;;
39018;SDS011;24786;51.984;5.872;2022-11-10T00:44:32;10.82;;;3.90;;
39018;SDS011;24786;51.984;5.872;2022-11-10T00:46:58;10.82;;;3.75;;
39018;SDS011;24786;51.984;5.872;2022-11-10T00:49:24;10.35;;;3.45;;
39018;SDS011;24786;51.984;5.872;2022-11-10T00:51:50;10.25;;;3.20;;
39018;SDS011;24786;51.984;5.872;2022-11-10T00:54:16;9.73;;;3.35;;
39018;SDS011;24786;51.984;5.872;2022-11-10T00:56:42;14.45;;;4.00;;
39018;SDS011;24786;51.984;5.872;2022-11-10T00:59:07;10.65;;;3.63;;
39018;SDS011;24786;51.984;5.872;2022-11-10T01:01:33;11.73;;;3.63;;
39018;SDS011;24786;51.984;5.872;2022-11-10T01:03:59;8.85;;;3.85;;
39018;SDS011;24786;51.984;5.872;2022-11-10T01:06:24;8.63;;;3.53;;
39018;SDS011;24786;51.984;5.872;2022-11-10T01:08:50;5.90;;;3.03;;
39018;SDS011;24786;51.984;5.872;2022-11-10T01:11:20;11.18;;;3.40;;
39018;SDS011;24786;51.984;5.872;2022-11-10T01:13:48;7.43;;;3.33;;
39018;SDS011;24786;51.984;5.872;2022-11-10T01:16:16;14.98;;;3.80;;
39018;SDS011;24786;51.984;5.872;2022-11-10T01:18:51;12.93;;;3.35;;
39018;SDS011;24786;51.984;5.872;2022-11-10T01:21:18;9.95;;;3.28;;
39018;SDS011;24786;51.984;5.872;2022-11-10T01:23:45;15.73;;;4.00;;
39018;SDS011;24786;51.984;5.872;2022-11-10T01:26:11;10.95;;;3.63;;
39018;SDS011;24786;51.984;5.872;2022-11-10T01:28:37;10.80;;;3.85;;
39018;SDS011;24786;51.984;5.872;2022-11-10T01:31:04;13.02;;;3.50;;
39018;SDS011;24786;51.984;5.872;2022-11-10T01:33:32;13.98;;;3.67;;
39018;SDS011;24786;51.984;5.872;2022-11-10T01:35:58;9.20;;;3.70;;
39018;SDS011;24786;51.984;5.872;2022-11-10T01:38:28;11.25;;;4.72;;
39018;SDS011;24786;51.984;5.872;2022-11-10T01:40:55;12.35;;;4.13;;
39018;SDS011;24786;51.984;5.872;2022-11-10T01:43:21;10.40;;;3.70;;
39018;SDS011;24786;51.984;5.872;2022-11-10T01:50:54;8.82;;;3.53;;
39018;SDS011;24786;51.984;5.872;2022-11-10T01:53:23;10.55;;;3.47;;
39018;SDS011;24786;51.984;5.872;2022-11-10T01:58:20;9.20;;;3.88;;
39018;SDS011;24786;51.984;5.872;2022-11-10T02:00:50;6.30;;;3.00;;
39018;SDS011;24786;51.984;5.872;2022-11-10T02:03:28;17.38;;;4.00;;
39018;SDS011;24786;51.984;5.872;2022-11-10T02:05:58;11.50;;;3.95;;
39018;SDS011;24786;51.984;5.872;2022-11-10T02:08:24;11.15;;;3.17;;
39018;SDS011;24786;51.984;5.872;2022-11-10T02:10:51;10.35;;;4.05;;
39018;SDS011;24786;51.984;5.872;2022-11-10T02:13:17;14.68;;;4.55;;
39018;SDS011;24786;51.984;5.872;2022-11-10T02:15:43;13.00;;;4.47;;
39018;SDS011;24786;51.984;5.872;2022-11-10T02:18:09;14.80;;;4.65;;
39018;SDS011;24786;51.984;5.872;2022-11-10T02:20:35;13.20;;;4.47;;
39018;SDS011;24786;51.984;5.872;2022-11-10T02:24:01;12.02;;;4.30;;
39018;SDS011;24786;51.984;5.872;2022-11-10T02:25:56;8.85;;;3.03;;
39018;SDS011;24786;51.984;5.872;2022-11-10T02:28:23;10.27;;;3.60;;
39018;SDS011;24786;51.984;5.872;2022-11-10T02:30:49;15.30;;;4.30;;
39018;SDS011;24786;51.984;5.872;2022-11-10T02:33:15;12.98;;;3.92;;
39018;SDS011;24786;51.984;5.872;2022-11-10T02:35:42;8.70;;;3.58;;
39018;SDS011;24786;51.984;5.872;2022-11-10T02:38:08;12.20;;;4.10;;
39018;SDS011;24786;51.984;5.872;2022-11-10T02:40:33;9.48;;;3.67;;
39018;SDS011;24786;51.984;5.872;2022-11-10T02:42:59;9.18;;;3.60;;
39018;SDS011;24786;51.984;5.872;2022-11-10T02:45:24;12.25;;;3.97;;
39018;SDS011;24786;51.984;5.872;2022-11-10T02:47:50;11.43;;;3.88;;
39018;SDS011;24786;51.984;5.872;2022-11-10T02:50:16;14.23;;;3.60;;
39018;SDS011;24786;51.984;5.872;2022-11-10T02:52:41;10.15;;;3.33;;
39018;SDS011;24786;51.984;5.872;2022-11-10T02:55:07;14.68;;;4.28;;
39018;SDS011;24786;51.984;5.872;2022-11-10T02:57:33;12.27;;;4.20;;
39018;SDS011;24786;51.984;5.872;2022-11-10T02:59:59;11.75;;;3.83;;
39018;SDS011;24786;51.984;5.872;2022-11-10T03:02:24;12.77;;;3.67;;
39018;SDS011;24786;51.984;5.872;2022-11-10T03:04:50;12.32;;;4.13;;
39018;SDS011;24786;51.984;5.872;2022-11-10T03:07:15;8.63;;;3.63;;
39018;SDS011;24786;51.984;5.872;2022-11-10T03:09:41;13.13;;;3.42;;
39018;SDS011;24786;51.984;5.872;2022-11-10T03:12:06;11.85;;;4.30;;
39018;SDS011;24786;51.984;5.872;2022-11-10T03:14:32;12.45;;;3.67;;
39018;SDS011;24786;51.984;5.872;2022-11-10T03:16:58;15.90;;;4.63;;
39018;SDS011;24786;51.984;5.872;2022-11-10T03:19:23;14.77;;;4.10;;
39018;SDS011;24786;51.984;5.872;2022-11-10T03:21:49;11.63;;;3.97;;
39018;SDS011;24786;51.984;5.872;2022-11-10T03:24:14;13.48;;;4.47;;
39018;SDS011;24786;51.984;5.872;2022-11-10T03:26:40;9.40;;;3.90;;
39018;SDS011;24786;51.984;5.872;2022-11-10T03:29:05;13.38;;;3.85;;
39018;SDS011;24786;51.984;5.872;2022-11-10T03:31:31;9.50;;;4.15;;
39018;SDS011;24786;51.984;5.872;2022-11-10T03:33:56;10.90;;;4.63;;
39018;SDS011;24786;51.984;5.872;2022-11-10T03:36:22;9.63;;;3.60;;
39018;SDS011;24786;51.984;5.872;2022-11-10T03:38:47;15.73;;;4.28;;
39018;SDS011;24786;51.984;5.872;2022-11-10T03:41:13;10.65;;;3.50;;
39018;SDS011;24786;51.984;5.872;2022-11-10T03:43:39;15.95;;;4.15;;
39018;SDS011;24786;51.984;5.872;2022-11-10T03:46:04;20.15;;;4.93;;
39018;SDS011;24786;51.984;5.872;2022-11-10T03:48:30;15.55;;;4.47;;
39018;SDS011;24786;51.984;5.872;2022-11-10T03:50:55;15.52;;;4.13;;
39018;SDS011;24786;51.984;5.872;2022-11-10T03:53:21;14.93;;;4.10;;
39018;SDS011;24786;51.984;5.872;2022-11-10T03:55:46;14.38;;;4.28;;
39018;SDS011;24786;51.984;5.872;2022-11-10T03:58:12;10.27;;;4.45;;
39018;SDS011;24786;51.984;5.872;2022-11-10T04:00:37;11.98;;;4.22;;
39018;SDS011;24786;51.984;5.872;2022-11-10T04:03:03;11.23;;;3.90;;
39018;SDS011;24786;51.984;5.872;2022-11-10T04:05:29;13.02;;;3.95;;
39018;SDS011;24786;51.984;5.872;2022-11-10T04:08:15;10.30;;;4.45;;
39018;SDS011;24786;51.984;5.872;2022-11-10T04:10:59;9.48;;;3.95;;
39018;SDS011;24786;51.984;5.872;2022-11-10T04:13:26;10.32;;;3.80;;
39018;SDS011;24786;51.984;5.872;2022-11-10T04:16:10;18.42;;;4.32;;
39018;SDS011;24786;51.984;5.872;2022-11-10T04:18:36;9.85;;;4.55;;
39018;SDS011;24786;51.984;5.872;2022-11-10T04:21:01;14.57;;;4.20;;
39018;SDS011;24786;51.984;5.872;2022-11-10T04:23:29;14.20;;;4.25;;
39018;SDS011;24786;51.984;5.872;2022-11-10T04:26:04;9.15;;;3.85;;
39018;SDS011;24786;51.984;5.872;2022-11-10T04:28:54;13.65;;;4.35;;
39018;SDS011;24786;51.984;5.872;2022-11-10T04:31:21;9.93;;;3.70;;
39018;SDS011;24786;51.984;5.872;2022-11-10T04:33:49;13.77;;;3.80;;
39018;SDS011;24786;51.984;5.872;2022-11-10T04:36:16;9.15;;;3.42;;
39018;SDS011;24786;51.984;5.872;2022-11-10T04:38:43;11.23;;;3.40;;
39018;SDS011;24786;51.984;5.872;2022-11-10T04:41:09;9.60;;;3.88;;
39018;SDS011;24786;51.984;5.872;2022-11-10T04:43:35;13.77;;;4.25;;
39018;SDS011;24786;51.984;5.872;2022-11-10T04:46:01;12.52;;;4.53;;
39018;SDS011;24786;51.984;5.872;2022-11-10T04:48:28;6.40;;;3.20;;
39018;SDS011;24786;51.984;5.872;2022-11-10T04:50:54;15.13;;;3.92;;
39018;SDS011;24786;51.984;5.872;2022-11-10T04:53:20;13.48;;;3.70;;
39018;SDS011;24786;51.984;5.872;2022-11-10T04:55:46;11.02;;;3.85;;
39018;SDS011;24786;51.984;5.872;2022-11-10T04:58:12;13.90;;;3.38;;
39018;SDS011;24786;51.984;5.872;2022-11-10T05:00:38;10.55;;;4.13;;
39018;SDS011;24786;51.984;5.872;2022-11-10T05:03:06;11.90;;;3.90;;
39018;SDS011;24786;51.984;5.872;2022-11-10T05:05:33;9.35;;;3.92;;
39018;SDS011;24786;51.984;5.872;2022-11-10T05:07:59;13.20;;;3.90;;
39018;SDS011;24786;51.984;5.872;2022-11-10T05:10:25;9.13;;;3.38;;
39018;SDS011;24786;51.984;5.872;2022-11-10T05:12:54;11.93;;;3.45;;
39018;SDS011;24786;51.984;5.872;2022-11-10T05:15:22;11.00;;;3.85;;
39018;SDS011;24786;51.984;5.872;2022-11-10T05:17:49;14.00;;;4.53;;
39018;SDS011;24786;51.984;5.872;2022-11-10T05:20:16;16.23;;;4.00;;
39018;SDS011;24786;51.984;5.872;2022-11-10T05:22:43;12.50;;;3.92;;
39018;SDS011;24786;51.984;5.872;2022-11-10T05:25:10;14.07;;;3.58;;
39018;SDS011;24786;51.984;5.872;2022-11-10T05:27:36;12.98;;;3.35;;
39018;SDS011;24786;51.984;5.872;2022-11-10T05:30:02;15.63;;;4.03;;
39018;SDS011;24786;51.984;5.872;2022-11-10T05:32:28;12.65;;;4.40;;
39018;SDS011;24786;51.984;5.872;2022-11-10T05:34:53;13.80;;;4.43;;
39018;SDS011;24786;51.984;5.872;2022-11-10T05:37:19;8.27;;;3.63;;
39018;SDS011;24786;51.984;5.872;2022-11-10T05:39:44;13.52;;;3.47;;
39018;SDS011;24786;51.984;5.872;2022-11-10T05:42:10;9.10;;;3.47;;
39018;SDS011;24786;51.984;5.872;2022-11-10T05:44:35;10.63;;;3.97;;
39018;SDS011;24786;51.984;5.872;2022-11-10T05:47:01;14.02;;;4.05;;
39018;SDS011;24786;51.984;5.872;2022-11-10T05:49:26;11.10;;;3.35;;
39018;SDS011;24786;51.984;5.872;2022-11-10T05:51:52;14.23;;;3.85;;
39018;SDS011;24786;51.984;5.872;2022-11-10T05:54:18;11.45;;;4.15;;
39018;SDS011;24786;51.984;5.872;2022-11-10T05:56:43;11.88;;;3.00;;
39018;SDS011;24786;51.984;5.872;2022-11-10T05:59:09;14.65;;;4.93;;
39018;SDS011;24786;51.984;5.872;2022-11-10T06:01:35;9.85;;;3.00;;
39018;SDS011;24786;51.984;5.872;2022-11-10T06:04:00;8.75;;;3.33;;
39018;SDS011;24786;51.984;5.872;2022-11-10T06:06:26;12.43;;;3.45;;
39018;SDS011;24786;51.984;5.872;2022-11-10T06:08:52;14.95;;;3.65;;
39018;SDS011;24786;51.984;5.872;2022-11-10T06:11:17;6.03;;;3.35;;
39018;SDS011;24786;51.984;5.872;2022-11-10T06:13:44;12.05;;;3.58;;
39018;SDS011;24786;51.984;5.872;2022-11-10T06:16:10;8.65;;;3.15;;
39018;SDS011;24786;51.984;5.872;2022-11-10T06:18:35;12.05;;;3.75;;
39018;SDS011;24786;51.984;5.872;2022-11-10T06:21:01;11.07;;;2.65;;
39018;SDS011;24786;51.984;5.872;2022-11-10T06:23:26;14.60;;;4.30;;
39018;SDS011;24786;51.984;5.872;2022-11-10T06:25:52;6.93;;;3.20;;
39018;SDS011;24786;51.984;5.872;2022-11-10T06:28:17;9.00;;;3.08;;
39018;SDS011;24786;51.984;5.872;2022-11-10T06:30:43;9.68;;;3.42;;
39018;SDS011;24786;51.984;5.872;2022-11-10T06:33:09;13.02;;;3.67;;
39018;SDS011;24786;51.984;5.872;2022-11-10T06:35:34;12.35;;;3.40;;
39018;SDS011;24786;51.984;5.872;2022-11-10T06:38:01;12.82;;;3.55;;
39018;SDS011;24786;51.984;5.872;2022-11-10T06:40:28;11.65;;;3.83;;
39018;SDS011;24786;51.984;5.872;2022-11-10T06:42:55;7.10;;;2.70;;
39018;SDS011;24786;51.984;5.872;2022-11-10T06:45:21;10.57;;;3.03;;
39018;SDS011;24786;51.984;5.872;2022-11-10T06:47:47;7.60;;;3.03;;
39018;SDS011;24786;51.984;5.872;2022-11-10T06:50:13;9.57;;;3.08;;
39018;SDS011;24786;51.984;5.872;2022-11-10T06:52:39;15.18;;;3.72;;
39018;SDS011;24786;51.984;5.872;2022-11-10T06:55:04;8.65;;;3.92;;
39018;SDS011;24786;51.984;5.872;2022-11-10T06:57:36;10.32;;;3.45;;
39018;SDS011;24786;51.984;5.872;2022-11-10T07:00:03;14.25;;;2.85;;
39018;SDS011;24786;51.984;5.872;2022-11-10T07:02:29;11.13;;;3.38;;
39018;SDS011;24786;51.984;5.872;2022-11-10T07:04:54;8.05;;;3.10;;
39018;SDS011;24786;51.984;5.872;2022-11-10T07:07:20;10.23;;;3.80;;
39018;SDS011;24786;51.984;5.872;2022-11-10T07:09:45;9.85;;;3.25;;
39018;SDS011;24786;51.984;5.872;2022-11-10T07:12:11;13.18;;;3.55;;
39018;SDS011;24786;51.984;5.872;2022-11-10T07:14:36;10.20;;;3.60;;
39018;SDS011;24786;51.984;5.872;2022-11-10T07:17:02;13.25;;;3.90;;
39018;SDS011;24786;51.984;5.872;2022-11-10T07:19:27;16.33;;;3.50;;
39018;SDS011;24786;51.984;5.872;2022-11-10T07:21:53;9.35;;;3.00;;
39018;SDS011;24786;51.984;5.872;2022-11-10T07:24:19;12.35;;;3.25;;
39018;SDS011;24786;51.984;5.872;2022-11-10T07:26:44;10.27;;;3.22;;
39018;SDS011;24786;51.984;5.872;2022-11-10T07:29:10;11.57;;;4.30;;
39018;SDS011;24786;51.984;5.872;2022-11-10T07:31:35;11.32;;;3.47;;
39018;SDS011;24786;51.984;5.872;2022-11-10T07:34:01;12.70;;;3.22;;
39018;SDS011;24786;51.984;5.872;2022-11-10T07:36:26;9.20;;;3.28;;
39018;SDS011;24786;51.984;5.872;2022-11-10T07:38:53;12.50;;;3.05;;
39018;SDS011;24786;51.984;5.872;2022-11-10T07:41:19;9.50;;;3.47;;
39018;SDS011;24786;51.984;5.872;2022-11-10T07:43:44;10.05;;;3.42;;
39018;SDS011;24786;51.984;5.872;2022-11-10T07:46:10;15.15;;;3.70;;
39018;SDS011;24786;51.984;5.872;2022-11-10T07:48:36;16.65;;;3.83;;
39018;SDS011;24786;51.984;5.872;2022-11-10T07:51:01;9.27;;;3.20;;
39018;SDS011;24786;51.984;5.872;2022-11-10T07:53:27;9.75;;;3.03;;
39018;SDS011;24786;51.984;5.872;2022-11-10T07:55:53;7.25;;;2.60;;
39018;SDS011;24786;51.984;5.872;2022-11-10T07:58:19;8.50;;;3.15;;
39018;SDS011;24786;51.984;5.872;2022-11-10T08:00:45;11.43;;;3.35;;
39018;SDS011;24786;51.984;5.872;2022-11-10T08:03:12;13.68;;;3.72;;
39018;SDS011;24786;51.984;5.872;2022-11-10T08:05:40;14.07;;;3.53;;
39018;SDS011;24786;51.984;5.872;2022-11-10T08:08:05;10.27;;;3.25;;
39018;SDS011;24786;51.984;5.872;2022-11-10T08:10:32;13.02;;;4.22;;
39018;SDS011;24786;51.984;5.872;2022-11-10T08:12:59;13.95;;;3.53;;
39018;SDS011;24786;51.984;5.872;2022-11-10T08:15:28;8.65;;;3.90;;
39018;SDS011;24786;51.984;5.872;2022-11-10T08:17:58;13.02;;;3.85;;
39018;SDS011;24786;51.984;5.872;2022-11-10T08:20:24;11.10;;;3.75;;
39018;SDS011;24786;51.984;5.872;2022-11-10T08:22:55;10.80;;;3.55;;
39018;SDS011;24786;51.984;5.872;2022-11-10T08:25:25;10.57;;;3.75;;
39018;SDS011;24786;51.984;5.872;2022-11-10T08:27:59;11.15;;;3.78;;
39018;SDS011;24786;51.984;5.872;2022-11-10T08:30:29;10.45;;;3.72;;
39018;SDS011;24786;51.984;5.872;2022-11-10T08:32:56;13.00;;;3.50;;
39018;SDS011;24786;51.984;5.872;2022-11-10T08:35:23;13.20;;;3.75;;
39018;SDS011;24786;51.984;5.872;2022-11-10T08:37:50;11.80;;;4.00;;
39018;SDS011;24786;51.984;5.872;2022-11-10T08:40:16;19.45;;;4.63;;
39018;SDS011;24786;51.984;5.872;2022-11-10T08:42:43;15.65;;;4.55;;
39018;SDS011;24786;51.984;5.872;2022-11-10T08:45:08;15.23;;;4.13;;
39018;SDS011;24786;51.984;5.872;2022-11-10T08:47:34;11.43;;;3.88;;
39018;SDS011;24786;51.984;5.872;2022-11-10T08:50:00;13.02;;;4.07;;
39018;SDS011;24786;51.984;5.872;2022-11-10T08:52:26;21.73;;;4.70;;
39018;SDS011;24786;51.984;5.872;2022-11-10T08:54:51;16.70;;;4.15;;
39018;SDS011;24786;51.984;5.872;2022-11-10T08:57:17;18.85;;;4.13;;
39018;SDS011;24786;51.984;5.872;2022-11-10T08:59:42;15.57;;;4.07;;
39018;SDS011;24786;51.984;5.872;2022-11-10T09:02:09;13.30;;;3.85;;
39018;SDS011;24786;51.984;5.872;2022-11-10T09:04:34;10.27;;;3.38;;
39018;SDS011;24786;51.984;5.872;2022-11-10T09:07:00;17.58;;;4.60;;
39018;SDS011;24786;51.984;5.872;2022-11-10T09:09:25;14.85;;;4.65;;
39018;SDS011;24786;51.984;5.872;2022-11-10T09:11:51;12.25;;;3.13;;
39018;SDS011;24786;51.984;5.872;2022-11-10T09:14:17;21.02;;;5.03;;
39018;SDS011;24786;51.984;5.872;2022-11-10T09:16:42;10.88;;;3.72;;
39018;SDS011;24786;51.984;5.872;2022-11-10T09:19:08;13.00;;;4.20;;
39018;SDS011;24786;51.984;5.872;2022-11-10T09:21:33;13.68;;;4.80;;
39018;SDS011;24786;51.984;5.872;2022-11-10T09:23:59;12.25;;;4.22;;
39018;SDS011;24786;51.984;5.872;2022-11-10T09:26:25;10.10;;;3.08;;
39018;SDS011;24786;51.984;5.872;2022-11-10T09:28:52;18.40;;;4.35;;
39018;SDS011;24786;51.984;5.872;2022-11-10T09:31:17;14.13;;;3.08;;
39018;SDS011;24786;51.984;5.872;2022-11-10T09:33:43;18.40;;;4.63;;
39018;SDS011;24786;51.984;5.872;2022-11-10T09:36:09;14.93;;;3.75;;
39018;SDS011;24786;51.984;5.872;2022-11-10T09:38:34;12.98;;;4.03;;
39018;SDS011;24786;51.984;5.872;2022-11-10T09:46:17;16.02;;;3.83;;
39018;SDS011;24786;51.984;5.872;2022-11-10T09:48:55;16.30;;;3.70;;
39018;SDS011;24786;51.984;5.872;2022-11-10T09:51:27;9.57;;;2.88;;
39018;SDS011;24786;51.984;5.872;2022-11-10T09:54:02;10.55;;;3.33;;
39018;SDS011;24786;51.984;5.872;2022-11-10T09:56:49;11.93;;;4.15;;
39018;SDS011;24786;51.984;5.872;2022-11-10T09:59:24;13.85;;;3.55;;
39018;SDS011;24786;51.984;5.872;2022-11-10T10:01:54;14.30;;;4.22;;
39018;SDS011;24786;51.984;5.872;2022-11-10T10:10:18;13.77;;;4.68;;
39018;SDS011;24786;51.984;5.872;2022-11-10T10:12:52;16.17;;;4.25;;
39018;SDS011;24786;51.984;5.872;2022-11-10T10:23:52;20.95;;;4.35;;
39018;SDS011;24786;51.984;5.872;2022-11-10T10:26:23;13.07;;;4.50;;
39018;SDS011;24786;51.984;5.872;2022-11-10T10:28:53;12.50;;;3.65;;
39018;SDS011;24786;51.984;5.872;2022-11-10T10:31:23;15.43;;;3.90;;
39018;SDS011;24786;51.984;5.872;2022-11-10T10:33:50;13.85;;;3.65;;
39018;SDS011;24786;51.984;5.872;2022-11-10T10:41:54;16.40;;;4.38;;
39018;SDS011;24786;51.984;5.872;2022-11-10T10:44:22;9.85;;;3.67;;
39018;SDS011;24786;51.984;5.872;2022-11-10T10:47:11;12.98;;;3.38;;
39018;SDS011;24786;51.984;5.872;2022-11-10T10:49:38;17.20;;;4.50;;
39018;SDS011;24786;51.984;5.872;2022-11-10T10:52:05;13.73;;;3.67;;
39018;SDS011;24786;51.984;5.872;2022-11-10T10:54:35;10.82;;;3.75;;
39018;SDS011;24786;51.984;5.872;2022-11-10T11:03:05;11.38;;;3.58;;
39018;SDS011;24786;51.984;5.872;2022-11-10T11:08:51;8.13;;;2.88;;
39018;SDS011;24786;51.984;5.872;2022-11-10T11:11:17;10.48;;;3.80;;
39018;SDS011;24786;51.984;5.872;2022-11-10T11:13:42;16.75;;;3.65;;
39018;SDS011;24786;51.984;5.872;2022-11-10T11:16:08;16.23;;;3.55;;
39018;SDS011;24786;51.984;5.872;2022-11-10T11:18:37;13.20;;;3.80;;
39018;SDS011;24786;51.984;5.872;2022-11-10T11:21:11;12.88;;;3.50;;
39018;SDS011;24786;51.984;5.872;2022-11-10T11:29:26;10.07;;;3.40;;
39018;SDS011;24786;51.984;5.872;2022-11-10T11:32:29;8.90;;;3.00;;
39018;SDS011;24786;51.984;5.872;2022-11-10T11:35:26;14.68;;;4.07;;
39018;SDS011;24786;51.984;5.872;2022-11-10T11:38:10;9.88;;;3.90;;
39018;SDS011;24786;51.984;5.872;2022-11-10T11:41:03;14.40;;;3.53;;
39018;SDS011;24786;51.984;5.872;2022-11-10T11:43:44;11.07;;;3.20;;
39018;SDS011;24786;51.984;5.872;2022-11-10T11:46:29;10.75;;;2.80;;
39018;SDS011;24786;51.984;5.872;2022-11-10T12:08:00;12.35;;;2.90;;
39018;SDS011;24786;51.984;5.872;2022-11-10T12:21:21;11.80;;;3.30;;
39018;SDS011;24786;51.984;5.872;2022-11-10T12:24:20;9.73;;;3.05;;
39018;SDS011;24786;51.984;5.872;2022-11-10T12:26:54;5.32;;;2.28;;
39018;SDS011;24786;51.984;5.872;2022-11-10T12:31:54;9.88;;;2.97;;
39018;SDS011;24786;51.984;5.872;2022-11-10T12:36:55;13.05;;;3.33;;
39018;SDS011;24786;51.984;5.872;2022-11-10T12:39:25;9.35;;;2.40;;
39018;SDS011;24786;51.984;5.872;2022-11-10T12:42:07;5.63;;;2.08;;
39018;SDS011;24786;51.984;5.872;2022-11-10T12:47:25;10.02;;;2.90;;
39018;SDS011;24786;51.984;5.872;2022-11-10T12:50:01;9.20;;;2.80;;
39018;SDS011;24786;51.984;5.872;2022-11-10T12:52:56;13.75;;;3.00;;
39018;SDS011;24786;51.984;5.872;2022-11-10T12:55:37;6.60;;;2.53;;
39018;SDS011;24786;51.984;5.872;2022-11-10T12:58:05;12.50;;;3.35;;
39018;SDS011;24786;51.984;5.872;2022-11-10T13:00:39;9.50;;;2.50;;
39018;SDS011;24786;51.984;5.872;2022-11-10T13:03:53;10.02;;;2.47;;
39018;SDS011;24786;51.984;5.872;2022-11-10T13:06:25;12.35;;;2.65;;
39018;SDS011;24786;51.984;5.872;2022-11-10T13:08:51;7.15;;;2.47;;
39018;SDS011;24786;51.984;5.872;2022-11-10T13:13:46;16.63;;;2.85;;
39018;SDS011;24786;51.984;5.872;2022-11-10T13:19:03;4.90;;;2.28;;
39018;SDS011;24786;51.984;5.872;2022-11-10T13:34:33;7.38;;;2.25;;
39018;SDS011;24786;51.984;5.872;2022-11-10T13:37:00;7.82;;;2.20;;
39018;SDS011;24786;51.984;5.872;2022-11-10T13:52:44;7.00;;;2.65;;
39018;SDS011;24786;51.984;5.872;2022-11-10T13:56:17;8.07;;;2.25;;
39018;SDS011;24786;51.984;5.872;2022-11-10T13:58:27;11.98;;;2.53;;
39018;SDS011;24786;51.984;5.872;2022-11-10T14:06:13;10.85;;;1.90;;
39018;SDS011;24786;51.984;5.872;2022-11-10T14:08:53;10.68;;;2.72;;
39018;SDS011;24786;51.984;5.872;2022-11-10T14:11:21;6.75;;;2.00;;
39018;SDS011;24786;51.984;5.872;2022-11-10T14:16:41;7.13;;;1.83;;
39018;SDS011;24786;51.984;5.872;2022-11-10T14:22:53;8.35;;;1.88;;
39018;SDS011;24786;51.984;5.872;2022-11-10T14:25:03;7.43;;;1.90;;
39018;SDS011;24786;51.984;5.872;2022-11-10T14:27:41;7.88;;;2.42;;
39018;SDS011;24786;51.984;5.872;2022-11-10T14:32:52;5.30;;;2.05;;
39018;SDS011;24786;51.984;5.872;2022-11-10T14:35:20;6.22;;;1.90;;
39018;SDS011;24786;51.984;5.872;2022-11-10T14:37:47;8.82;;;2.20;;
39018;SDS011;24786;51.984;5.872;2022-11-10T14:40:16;9.13;;;2.40;;
39018;SDS011;24786;51.984;5.872;2022-11-10T14:45:13;6.47;;;2.25;;
39018;SDS011;24786;51.984;5.872;2022-11-10T14:47:42;7.30;;;2.03;;
39018;SDS011;24786;51.984;5.872;2022-11-10T14:52:42;4.68;;;1.60;;
39018;SDS011;24786;51.984;5.872;2022-11-10T14:57:40;9.10;;;2.40;;
39018;SDS011;24786;51.984;5.872;2022-11-10T15:00:13;5.53;;;1.70;;
39018;SDS011;24786;51.984;5.872;2022-11-10T15:02:41;11.10;;;2.50;;
39018;SDS011;24786;51.984;5.872;2022-11-10T15:05:10;4.85;;;1.67;;
39018;SDS011;24786;51.984;5.872;2022-11-10T15:07:38;8.82;;;2.15;;
39018;SDS011;24786;51.984;5.872;2022-11-10T15:10:06;5.78;;;2.20;;
39018;SDS011;24786;51.984;5.872;2022-11-10T15:12:40;5.32;;;1.75;;
39018;SDS011;24786;51.984;5.872;2022-11-10T15:15:19;5.47;;;1.77;;
39018;SDS011;24786;51.984;5.872;2022-11-10T15:17:47;7.47;;;1.50;;
39018;SDS011;24786;51.984;5.872;2022-11-10T15:20:34;5.60;;;1.98;;
39018;SDS011;24786;51.984;5.872;2022-11-10T15:23:03;10.93;;;1.48;;
39018;SDS011;24786;51.984;5.872;2022-11-10T15:25:38;3.25;;;1.15;;
39018;SDS011;24786;51.984;5.872;2022-11-10T15:30:36;4.45;;;1.42;;
39018;SDS011;24786;51.984;5.872;2022-11-10T15:33:07;3.95;;;1.30;;
39018;SDS011;24786;51.984;5.872;2022-11-10T15:35:34;3.47;;;1.60;;
39018;SDS011;24786;51.984;5.872;2022-11-10T15:38:01;2.78;;;2.00;;
39018;SDS011;24786;51.984;5.872;2022-11-10T15:40:34;6.35;;;2.05;;
39018;SDS011;24786;51.984;5.872;2022-11-10T15:45:33;5.93;;;1.63;;
39018;SDS011;24786;51.984;5.872;2022-11-10T15:47:59;5.45;;;1.92;;
39018;SDS011;24786;51.984;5.872;2022-11-10T15:50:25;5.00;;;1.83;;
39018;SDS011;24786;51.984;5.872;2022-11-10T15:52:51;7.10;;;1.77;;
39018;SDS011;24786;51.984;5.872;2022-11-10T15:55:20;5.03;;;1.75;;
39018;SDS011;24786;51.984;5.872;2022-11-10T15:57:47;3.63;;;1.75;;
39018;SDS011;24786;51.984;5.872;2022-11-10T16:00:13;7.10;;;2.00;;
39018;SDS011;24786;51.984;5.872;2022-11-10T16:02:39;6.03;;;1.83;;
39018;SDS011;24786;51.984;5.872;2022-11-10T16:05:09;5.63;;;1.33;;
39018;SDS011;24786;51.984;5.872;2022-11-10T16:07:36;4.53;;;1.77;;
39018;SDS011;24786;51.984;5.872;2022-11-10T16:10:03;6.10;;;1.88;;
39018;SDS011;24786;51.984;5.872;2022-11-10T16:12:33;3.58;;;1.40;;
39018;SDS011;24786;51.984;5.872;2022-11-10T16:14:58;4.88;;;1.70;;
39018;SDS011;24786;51.984;5.872;2022-11-10T16:17:27;5.03;;;1.77;;
39018;SDS011;24786;51.984;5.872;2022-11-10T16:19:52;7.63;;;1.88;;
39018;SDS011;24786;51.984;5.872;2022-11-10T16:22:18;5.57;;;1.70;;
39018;SDS011;24786;51.984;5.872;2022-11-10T16:24:43;4.18;;;1.98;;
39018;SDS011;24786;51.984;5.872;2022-11-10T16:27:13;6.05;;;1.75;;
39018;SDS011;24786;51.984;5.872;2022-11-10T16:29:39;7.32;;;2.15;;
39018;SDS011;24786;51.984;5.872;2022-11-10T16:32:06;5.38;;;1.88;;
39018;SDS011;24786;51.984;5.872;2022-11-10T16:34:32;4.70;;;1.73;;
39018;SDS011;24786;51.984;5.872;2022-11-10T16:36:58;6.63;;;1.92;;
39018;SDS011;24786;51.984;5.872;2022-11-10T16:39:24;3.45;;;1.58;;
39018;SDS011;24786;51.984;5.872;2022-11-10T16:41:51;6.05;;;2.03;;
39018;SDS011;24786;51.984;5.872;2022-11-10T16:44:17;3.47;;;1.77;;
39018;SDS011;24786;51.984;5.872;2022-11-10T16:46:47;7.38;;;2.03;;
39018;SDS011;24786;51.984;5.872;2022-11-10T16:51:55;2.90;;;1.20;;
39018;SDS011;24786;51.984;5.872;2022-11-10T16:54:21;7.43;;;2.05;;
39018;SDS011;24786;51.984;5.872;2022-11-10T16:56:47;4.88;;;2.13;;
39018;SDS011;24786;51.984;5.872;2022-11-10T16:59:12;4.57;;;2.10;;
39018;SDS011;24786;51.984;5.872;2022-11-10T17:01:51;3.72;;;1.77;;
39018;SDS011;24786;51.984;5.872;2022-11-10T17:04:18;2.38;;;1.73;;
39018;SDS011;24786;51.984;5.872;2022-11-10T17:06:43;5.50;;;1.80;;
39018;SDS011;24786;51.984;5.872;2022-11-10T17:09:14;3.38;;;1.80;;
39018;SDS011;24786;51.984;5.872;2022-11-10T17:11:42;2.55;;;1.63;;
39018;SDS011;24786;51.984;5.872;2022-11-10T17:14:11;4.60;;;2.00;;